createdAt,value
2023-04-01T00:01:56.627Z,98994.16
2023-04-01T00:04:24.437Z,98991.91
2023-04-01T00:06:52.766Z,98999.28
2023-04-01T00:09:20.463Z,98987.84
2023-04-01T00:11:49.523Z,98982.91
2023-04-01T00:14:17.287Z,98986.59
2023-04-01T00:16:45.426Z,98988.84
2023-04-01T00:19:13.171Z,98982.53
2023-04-01T00:21:41.237Z,98974.72
2023-04-01T00:24:09.050Z,98971.84
2023-04-01T00:26:37.123Z,98975.34
2023-04-01T00:29:06.976Z,98965.72
2023-04-01T00:31:34.864Z,98985.16
2023-04-01T00:34:02.497Z,98978.16
2023-04-01T00:36:30.148Z,98968.94
2023-04-01T00:38:59.827Z,98975.09
2023-04-01T00:41:27.674Z,98984.06
2023-04-01T00:44:10.249Z,98970.78
2023-04-01T00:46:39.381Z,98978.75
2023-04-01T00:49:07.201Z,98981.19
2023-04-01T00:51:36.587Z,98969.34
2023-04-01T00:54:04.787Z,98971.81
2023-04-01T00:56:37.895Z,98986.13
2023-04-01T00:59:09.458Z,98983.47
2023-04-01T01:01:39.091Z,98982.25
2023-04-01T01:04:06.869Z,98983.47
2023-04-01T01:06:48.827Z,98974.88
2023-04-01T01:09:31.433Z,98987.78
2023-04-01T01:12:08.598Z,98978.75
2023-04-01T01:14:49.495Z,98970.75
2023-04-01T01:17:28.145Z,98979.94
2023-04-01T01:20:26.998Z,98984.03
2023-04-01T01:23:16.684Z,98986.50
2023-04-01T01:25:56.775Z,98979.13
2023-04-01T01:28:40.434Z,98959.06
2023-04-01T01:31:21.813Z,98968.09
2023-04-01T01:34:03.720Z,98960.31
2023-04-01T01:36:35.795Z,98973.00
2023-04-01T01:39:05.862Z,98968.72
2023-04-01T01:41:36.726Z,98965.44
2023-04-01T01:44:06.890Z,98961.56
2023-04-01T01:46:35.535Z,98962.16
2023-04-01T01:49:07.235Z,98949.47
2023-04-01T01:51:36.486Z,98944.31
2023-04-01T01:54:04.387Z,98955.94
2023-04-01T01:56:34.208Z,98946.97
2023-04-01T01:59:05.523Z,98954.09
2023-04-01T02:01:36.603Z,98953.28
2023-04-01T02:04:05.253Z,98951.25
2023-04-01T02:06:38.181Z,98955.97
2023-04-01T02:09:08.611Z,98952.13
2023-04-01T02:11:40.502Z,98954.59
2023-04-01T02:14:12.678Z,98957.44
2023-04-01T02:16:44.911Z,98950.84
2023-04-01T02:19:15.490Z,98958.81
2023-04-01T02:21:45.833Z,98948.19
2023-04-01T02:24:16.858Z,98957.81
2023-04-01T02:26:47.023Z,98963.09
2023-04-01T02:29:15.410Z,98960.16
2023-04-01T02:31:44.552Z,98959.53
2023-04-01T02:34:12.463Z,98951.16
2023-04-01T02:36:40.779Z,98962.25
2023-04-01T02:39:10.195Z,98958.94
2023-04-01T02:41:41.525Z,98962.25
2023-04-01T02:44:09.640Z,98964.50
2023-04-01T02:46:37.735Z,98955.94
2023-04-01T02:49:06.272Z,98967.22
2023-04-01T02:51:34.147Z,98955.72
2023-04-01T02:54:01.970Z,98964.69
2023-04-01T02:56:31.264Z,98954.44
2023-04-01T02:58:58.996Z,98955.63
2023-04-01T03:01:26.810Z,98948.91
2023-04-01T03:03:54.521Z,98952.41
2023-04-01T03:06:22.182Z,98947.09
2023-04-01T03:08:50.056Z,98956.47
2023-04-01T03:11:17.755Z,98946.25
2023-04-01T03:13:46.762Z,98950.13
2023-04-01T03:16:14.630Z,98944.63
2023-04-01T03:18:42.380Z,98944.13
2023-04-01T03:21:17.424Z,98946.00
2023-04-01T03:23:45.171Z,98944.16
2023-04-01T03:26:12.836Z,98948.81
2023-04-01T03:28:40.423Z,98948.03
2023-04-01T03:31:09.675Z,98951.91
2023-04-01T03:33:37.453Z,98947.78
2023-04-01T03:36:07.379Z,98944.94
2023-04-01T03:38:35.693Z,98950.91
2023-04-01T03:41:04.025Z,98955.75
2023-04-01T03:43:31.794Z,98954.38
2023-04-01T03:45:59.592Z,98944.16
2023-04-01T03:48:28.694Z,98955.25
2023-04-01T03:50:56.567Z,98954.59
2023-04-01T03:53:24.321Z,98952.81
2023-04-01T03:55:53.118Z,98950.97
2023-04-01T03:58:21.170Z,98960.63
2023-04-01T04:00:48.816Z,98963.91
2023-04-01T04:03:16.995Z,98962.91
2023-04-01T04:05:49.770Z,98955.31
2023-04-01T04:08:17.550Z,98944.88
2023-04-01T04:10:45.760Z,98943.44
2023-04-01T04:13:13.575Z,98950.78
2023-04-01T04:15:41.305Z,98945.69
2023-04-01T04:18:09.084Z,98951.63
2023-04-01T04:20:36.770Z,98944.50
2023-04-01T04:23:05.839Z,98952.09
2023-04-01T04:25:33.718Z,98953.91
2023-04-01T04:28:01.535Z,98954.13
2023-04-01T04:30:29.299Z,98951.09
2023-04-01T04:32:57.082Z,98947.00
2023-04-01T04:35:24.729Z,98944.78
2023-04-01T04:37:52.357Z,98943.97
2023-04-01T04:40:21.455Z,98962.38
2023-04-01T04:42:49.137Z,98947.63
2023-04-01T04:45:16.842Z,98959.91
2023-04-01T04:47:44.602Z,98954.13
2023-04-01T04:50:12.716Z,98961.47
2023-04-01T04:52:40.688Z,98952.91
2023-04-01T04:55:09.335Z,98963.94
2023-04-01T04:57:38.379Z,98961.75
2023-04-01T05:00:07.888Z,98959.50
2023-04-01T05:02:36.503Z,98961.75
2023-04-01T05:05:05.111Z,98958.06
2023-04-01T05:07:32.826Z,98961.94
2023-04-01T05:10:00.513Z,98961.91
2023-04-01T05:12:28.228Z,98957.00
2023-04-01T05:14:57.408Z,98954.13
2023-04-01T05:17:25.416Z,98959.63
2023-04-01T05:19:53.230Z,98961.25
2023-04-01T05:22:21.051Z,98952.91
2023-04-01T05:24:49.480Z,98948.97
2023-04-01T05:27:17.296Z,98950.00
2023-04-01T05:29:45.043Z,98952.03
2023-04-01T05:32:14.075Z,98951.44
2023-04-01T05:34:41.831Z,98950.47
2023-04-01T05:37:09.724Z,98954.41
2023-04-01T05:39:38.693Z,98953.75
2023-04-01T05:42:09.164Z,98942.72
2023-04-01T05:44:37.287Z,98947.84
2023-04-01T05:47:05.886Z,98943.94
2023-04-01T05:49:35.504Z,98948.44
2023-04-01T05:52:03.245Z,98950.94
2023-04-01T05:54:31.121Z,98939.69
2023-04-01T05:56:58.944Z,98941.28
2023-04-01T05:59:26.671Z,98939.84
2023-04-01T06:01:54.960Z,98944.38
2023-04-01T06:04:22.971Z,98944.72
2023-04-01T06:06:52.390Z,98941.00
2023-04-01T06:09:22.338Z,98945.53
2023-04-01T06:12:12.704Z,98943.75
2023-04-01T06:14:49.808Z,98942.34
2023-04-01T06:17:29.677Z,98935.19
2023-04-01T06:20:02.617Z,98935.00
2023-04-01T06:22:57.041Z,98947.66
2023-04-01T06:25:39.600Z,98932.09
2023-04-01T06:28:37.462Z,98929.69
2023-04-01T06:31:11.967Z,98926.38
2023-04-01T06:33:54.642Z,98939.28
2023-04-01T06:36:39.381Z,98940.13
2023-04-01T06:39:27.540Z,98947.69
2023-04-01T06:42:27.213Z,98946.84
2023-04-01T06:45:04.188Z,98942.34
2023-04-01T06:47:46.611Z,98941.53
2023-04-01T06:50:21.534Z,98952.19
2023-04-01T06:53:00.468Z,98938.31
2023-04-01T06:55:38.580Z,98947.56
2023-04-01T06:58:12.168Z,98941.25
2023-04-01T07:00:43.376Z,98944.50
2023-04-01T07:03:22.375Z,98947.56
2023-04-01T07:05:51.495Z,98941.66
2023-04-01T07:08:23.317Z,98934.88
2023-04-01T07:10:57.932Z,98930.63
2023-04-01T07:13:31.430Z,98922.47
2023-04-01T07:16:09.025Z,98935.59
2023-04-01T07:18:43.228Z,98940.75
2023-04-01T07:21:19.363Z,98939.91
2023-04-01T07:23:49.123Z,98940.56
2023-04-01T07:26:22.621Z,98930.34
2023-04-01T07:28:53.029Z,98941.84
2023-04-01T07:31:51.584Z,98939.44
2023-04-01T07:34:25.739Z,98938.41
2023-04-01T07:37:02.262Z,98941.47
2023-04-01T07:39:39.553Z,98944.13
2023-04-01T07:42:18.168Z,98957.81
2023-04-01T07:44:56.522Z,98957.81
2023-04-01T07:47:46.107Z,98965.03
2023-04-01T07:50:24.646Z,98950.91
2023-04-01T07:53:02.433Z,98967.06
2023-04-01T07:55:37.600Z,98959.28
2023-04-01T07:58:14.966Z,98966.69
2023-04-01T08:00:49.771Z,98956.59
2023-04-01T08:03:33.692Z,98965.59
2023-04-01T08:06:08.854Z,98962.94
2023-04-01T08:08:47.580Z,98965.97
2023-04-01T08:11:27.226Z,98973.75
2023-04-01T08:14:05.871Z,98975.25
2023-04-01T08:16:39.479Z,98978.25
2023-04-01T08:19:23.331Z,98986.44
2023-04-01T08:21:54.406Z,98976.63
2023-04-01T08:24:37.105Z,98979.94
2023-04-01T08:27:19.781Z,98984.06
2023-04-01T08:29:55.125Z,98984.88
2023-04-01T08:32:27.638Z,98986.13
2023-04-01T08:35:04.598Z,98991.03
2023-04-01T08:37:37.337Z,98998.44
2023-04-01T08:40:35.771Z,98991.84
2023-04-01T08:43:14.728Z,98992.69
2023-04-01T08:45:56.772Z,98997.00
2023-04-01T08:48:45.956Z,99001.28
2023-04-01T08:51:52.095Z,98989.03
2023-04-01T08:54:38.986Z,98988.03
2023-04-01T08:57:15.231Z,98998.03
2023-04-01T09:00:04.460Z,98995.81
2023-04-01T09:02:51.276Z,98998.91
2023-04-01T09:05:49.334Z,98993.97
2023-04-01T09:08:38.002Z,98995.19
2023-04-01T09:11:10.308Z,98994.59
2023-04-01T09:13:58.498Z,98995.41
2023-04-01T09:16:37.386Z,98999.91
2023-04-01T09:19:21.784Z,99015.28
2023-04-01T09:22:11.978Z,99000.13
2023-04-01T09:24:54.669Z,99005.47
2023-04-01T09:27:29.713Z,99007.50
2023-04-01T09:30:33.586Z,99024.75
2023-04-01T09:33:28.958Z,99029.63
2023-04-01T09:36:06.812Z,99022.88
2023-04-01T09:38:46.980Z,99016.72
2023-04-01T09:41:24.782Z,99012.00
2023-04-01T09:44:04.183Z,99014.91
2023-04-01T09:46:46.789Z,99019.59
2023-04-01T09:49:43.234Z,99025.13
2023-04-01T09:52:24.052Z,99022.69
2023-04-01T09:55:06.650Z,99028.00
2023-04-01T09:57:54.773Z,99033.13
2023-04-01T10:00:41.608Z,99028.81
2023-04-01T10:03:50.715Z,99027.19
2023-04-01T10:06:58.334Z,99030.84
2023-04-01T10:09:50.735Z,99031.69
2023-04-01T10:12:46.964Z,99030.03
2023-04-01T10:15:40.912Z,99028.00
2023-04-01T10:18:42.433Z,99028.84
2023-04-01T10:21:36.226Z,99031.28
2023-04-01T10:24:44.949Z,99037.00
2023-04-01T10:27:26.530Z,99036.19
2023-04-01T10:30:34.235Z,99035.78
2023-04-01T10:33:22.159Z,99040.72
2023-04-01T10:36:52.730Z,99034.34
2023-04-01T10:40:20.318Z,99046.03
2023-04-01T10:43:27.745Z,99037.84
2023-04-01T10:46:21.488Z,99037.03
2023-04-01T10:49:20.899Z,99040.72
2023-04-01T10:52:25.594Z,99046.84
2023-04-01T10:55:12.936Z,99045.03
2023-04-01T10:58:12.473Z,99044.81
2023-04-01T11:01:22.501Z,99041.94
2023-04-01T11:04:30.000Z,99045.81
2023-04-01T11:07:37.186Z,99036.81
2023-04-01T11:10:54.005Z,99044.84
2023-04-01T11:13:54.221Z,99042.56
2023-04-01T11:16:52.918Z,99045.63
2023-04-01T11:20:05.711Z,99046.47
2023-04-01T11:22:52.104Z,99045.84
2023-04-01T11:25:45.310Z,99050.53
2023-04-01T11:28:38.454Z,99048.88
2023-04-01T11:31:18.436Z,99050.09
2023-04-01T11:33:56.097Z,99043.16
2023-04-01T11:36:34.249Z,99050.53
2023-04-01T11:39:26.039Z,99058.34
2023-04-01T11:42:03.649Z,99063.88
2023-04-01T11:44:32.389Z,99063.09
2023-04-01T11:47:21.582Z,99063.47
2023-04-01T11:50:01.955Z,99071.09
2023-04-01T11:52:52.865Z,99066.16
2023-04-01T11:55:35.966Z,99075.97
2023-04-01T11:58:38.875Z,99078.47
2023-04-01T12:01:30.592Z,99073.13
2023-04-01T12:04:29.547Z,99070.44
2023-04-01T12:07:05.710Z,99084.19
2023-04-01T12:09:44.046Z,99080.50
2023-04-01T12:12:20.129Z,99083.78
2023-04-01T12:15:01.467Z,99081.13
2023-04-01T12:17:38.623Z,99082.97
2023-04-01T12:20:28.591Z,99092.22
2023-04-01T12:23:04.820Z,99086.25
2023-04-01T12:25:56.057Z,99082.13
2023-04-01T12:28:31.707Z,99080.88
2023-04-01T12:31:17.411Z,99085.78
2023-04-01T12:33:59.308Z,99085.38
2023-04-01T12:36:44.069Z,99087.00
2023-04-01T12:39:33.706Z,99083.31
2023-04-01T12:42:12.125Z,99087.66
2023-04-01T12:45:20.380Z,99084.16
2023-04-01T12:48:32.276Z,99101.63
2023-04-01T12:51:29.764Z,99095.25
2023-04-01T12:54:23.262Z,99092.19
2023-04-01T12:56:59.727Z,99093.63
2023-04-01T12:59:44.639Z,99096.09
2023-04-01T13:02:30.064Z,99098.75
2023-04-01T13:05:23.364Z,99106.56
2023-04-01T13:08:05.042Z,99112.72
2023-04-01T13:11:07.784Z,99105.56
2023-04-01T13:13:56.050Z,99123.19
2023-04-01T13:16:27.551Z,99117.22
2023-04-01T13:19:01.192Z,99125.66
2023-04-01T13:21:40.718Z,99132.19
2023-04-01T13:24:22.483Z,99125.66
2023-04-01T13:26:58.645Z,99135.06
2023-04-01T13:29:33.578Z,99125.00
2023-04-01T13:32:15.551Z,99137.16
2023-04-01T13:34:57.602Z,99127.69
2023-04-01T13:37:42.182Z,99129.97
2023-04-01T13:40:30.968Z,99141.47
2023-04-01T13:43:03.660Z,99133.41
2023-04-01T13:45:40.972Z,99152.25
2023-04-01T13:48:34.885Z,99140.81
2023-04-01T13:51:15.430Z,99140.56
2023-04-01T13:54:01.478Z,99144.28
2023-04-01T13:56:40.197Z,99151.44
2023-04-01T13:59:50.866Z,99156.78
2023-04-01T14:02:41.233Z,99154.31
2023-04-01T14:05:32.383Z,99153.09
2023-04-01T14:08:19.579Z,99163.56
2023-04-01T14:10:57.473Z,99161.72
2023-04-01T14:13:35.162Z,99148.56
2023-04-01T14:16:22.807Z,99165.41
2023-04-01T14:19:09.814Z,99163.97
2023-04-01T14:21:43.747Z,99167.03
2023-04-01T14:24:27.135Z,99172.56
2023-04-01T14:27:16.269Z,99169.91
2023-04-01T14:29:56.122Z,99172.84
2023-04-01T14:32:34.422Z,99177.31
2023-04-01T14:35:20.394Z,99164.19
2023-04-01T14:38:06.412Z,99172.63
2023-04-01T14:40:52.994Z,99174.28
2023-04-01T14:43:40.976Z,99170.78
2023-04-01T14:46:30.206Z,99175.25
2023-04-01T14:49:01.224Z,99182.22
2023-04-01T14:51:36.020Z,99183.44
2023-04-01T14:54:10.830Z,99181.97
2023-04-01T14:56:42.854Z,99179.31
2023-04-01T14:59:19.531Z,99186.28
2023-04-01T15:01:52.632Z,99181.00
2023-04-01T15:04:44.213Z,99181.00
2023-04-01T15:07:42.052Z,99197.81
2023-04-01T15:10:22.319Z,99202.53
2023-04-01T15:13:00.031Z,99199.88
2023-04-01T15:15:42.574Z,99200.88
2023-04-01T15:18:13.350Z,99202.97
2023-04-01T15:21:18.142Z,99192.50
2023-04-01T15:23:58.113Z,99187.97
2023-04-01T15:26:45.266Z,99199.03
2023-04-01T15:29:36.260Z,99205.41
2023-04-01T15:32:17.939Z,99210.97
2023-04-01T15:34:56.400Z,99216.25
2023-04-01T15:37:33.655Z,99217.91
2023-04-01T15:40:17.866Z,99217.06
2023-04-01T15:43:00.812Z,99217.91
2023-04-01T15:45:39.793Z,99219.94
2023-04-01T15:48:27.030Z,99219.94
2023-04-01T15:51:08.402Z,99222.00
2023-04-01T15:53:48.849Z,99237.38
2023-04-01T15:56:28.421Z,99234.69
2023-04-01T15:59:05.780Z,99239.59
2023-04-01T16:01:43.984Z,99233.06
2023-04-01T16:04:39.852Z,99240.50
2023-04-01T16:07:19.798Z,99253.66
2023-04-01T16:10:08.911Z,99243.38
2023-04-01T16:12:52.651Z,99249.97
2023-04-01T16:15:29.233Z,99245.00
2023-04-01T16:18:17.967Z,99248.88
2023-04-01T16:20:54.432Z,99253.66
2023-04-01T16:23:28.601Z,99253.19
2023-04-01T16:26:10.383Z,99260.38
2023-04-01T16:28:50.613Z,99262.63
2023-04-01T16:31:31.311Z,99255.84
2023-04-01T16:34:06.008Z,99260.56
2023-04-01T16:36:40.135Z,99257.31
2023-04-01T16:39:22.399Z,99268.75
2023-04-01T16:41:54.077Z,99272.47
2023-04-01T16:44:26.007Z,99273.50
2023-04-01T16:46:56.397Z,99278.78
2023-04-01T16:49:35.010Z,99283.09
2023-04-01T16:52:19.417Z,99282.88
2023-04-01T16:54:53.920Z,99290.25
2023-04-01T16:57:29.041Z,99289.97
2023-04-01T17:00:05.335Z,99298.50
2023-04-01T17:02:37.873Z,99301.78
2023-04-01T17:05:07.858Z,99300.59
2023-04-01T17:07:48.701Z,99296.56
2023-04-01T17:10:30.844Z,99301.06
2023-04-01T17:13:13.256Z,99296.28
2023-04-01T17:15:46.895Z,99308.41
2023-04-01T17:18:22.324Z,99309.59
2023-04-01T17:20:56.140Z,99312.00
2023-04-01T17:23:31.354Z,99325.75
2023-04-01T17:26:17.620Z,99324.09
2023-04-01T17:28:52.316Z,99317.72
2023-04-01T17:31:35.562Z,99316.91
2023-04-01T17:34:19.465Z,99324.06
2023-04-01T17:37:03.533Z,99325.47
2023-04-01T17:39:44.803Z,99326.22
2023-04-01T17:42:17.560Z,99334.38
2023-04-01T17:45:00.110Z,99338.66
2023-04-01T17:47:43.332Z,99340.88
2023-04-01T17:50:25.167Z,99345.41
2023-04-01T17:53:12.107Z,99347.22
2023-04-01T17:55:48.488Z,99360.16
2023-04-01T17:58:21.060Z,99356.69
2023-04-01T18:00:59.878Z,99361.00
2023-04-01T18:03:50.475Z,99367.72
2023-04-01T18:06:21.783Z,99375.31
2023-04-01T18:09:01.034Z,99377.97
2023-04-01T18:11:41.144Z,99380.66
2023-04-01T18:14:37.977Z,99385.97
2023-04-01T18:17:19.879Z,99385.16
2023-04-01T18:20:04.297Z,99395.78
2023-04-01T18:29:14.332Z,99410.22
2023-04-01T18:32:46.627Z,99407.09
2023-04-01T18:35:34.183Z,99414.13
2023-04-01T18:39:02.524Z,99429.31
2023-04-01T18:41:24.531Z,99431.97
2023-04-01T18:44:52.502Z,99426.28
2023-04-01T18:48:16.087Z,99440.88
2023-04-01T19:02:33.642Z,99449.09
2023-04-01T19:05:49.165Z,99458.13
2023-04-01T20:10:36.193Z,99506.63
2023-04-01T20:14:00.582Z,99512.22
2023-04-01T20:29:16.156Z,99537.91
2023-04-01T21:22:13.819Z,99581.53
2023-04-01T21:33:11.653Z,99596.25
2023-04-01T21:40:32.579Z,99606.28
2023-04-01T22:18:36.857Z,99643.78
